sensor_id;sensor_type;location;lat;lon;timestamp;pressure;altitude;pressure_sealevel;temperature;humidity
54042;BME280;41156;51.508;5.406;2024-02-26T00:00:27;99706.50;;;6.23;100.00
54042;BME280;41156;51.508;5.406;2024-02-26T00:03:28;99700.91;;;6.18;100.00
54042;BME280;41156;51.508;5.406;2024-02-26T00:06:29;99697.03;;;6.14;100.00
54042;BME280;41156;51.508;5.406;2024-02-26T00:09:30;99702.00;;;6.10;100.00
54042;BME280;41156;51.508;5.406;2024-02-26T00:12:30;99699.13;;;6.05;100.00
54042;BME280;41156;51.508;5.406;2024-02-26T00:15:30;99707.41;;;6.03;100.00
54042;BME280;41156;51.508;5.406;2024-02-26T00:18:31;99705.13;;;6.00;100.00
54042;BME280;41156;51.508;5.406;2024-02-26T00:21:31;99700.59;;;6.01;100.00
54042;BME280;41156;51.508;5.406;2024-02-26T00:24:31;99705.94;;;6.01;100.00
54042;BME280;41156;51.508;5.406;2024-02-26T00:27:32;99695.22;;;6.01;100.00
54042;BME280;41156;51.508;5.406;2024-02-26T00:30:32;99701.63;;;6.00;100.00
54042;BME280;41156;51.508;5.406;2024-02-26T00:33:32;99703.25;;;6.01;100.00
54042;BME280;41156;51.508;5.406;2024-02-26T00:36:33;99707.81;;;6.00;100.00
54042;BME280;41156;51.508;5.406;2024-02-26T00:39:33;99701.63;;;6.00;100.00
54042;BME280;41156;51.508;5.406;2024-02-26T00:42:33;99690.91;;;6.00;100.00
54042;BME280;41156;51.508;5.406;2024-02-26T00:45:33;99691.13;;;5.98;100.00
54042;BME280;41156;51.508;5.406;2024-02-26T00:48:34;99681.41;;;5.97;100.00
54042;BME280;41156;51.508;5.406;2024-02-26T00:51:34;99679.56;;;5.98;100.00
54042;BME280;41156;51.508;5.406;2024-02-26T00:54:34;99673.56;;;5.96;100.00
54042;BME280;41156;51.508;5.406;2024-02-26T00:57:35;99680.19;;;5.93;100.00
54042;BME280;41156;51.508;5.406;2024-02-26T01:00:35;99673.78;;;5.87;100.00
54042;BME280;41156;51.508;5.406;2024-02-26T01:03:35;99681.22;;;5.85;100.00
54042;BME280;41156;51.508;5.406;2024-02-26T01:06:35;99678.75;;;5.84;100.00
54042;BME280;41156;51.508;5.406;2024-02-26T01:09:36;99681.06;;;5.80;100.00
54042;BME280;41156;51.508;5.406;2024-02-26T01:12:36;99695.47;;;5.79;100.00
54042;BME280;41156;51.508;5.406;2024-02-26T01:15:36;99697.34;;;5.79;100.00
54042;BME280;41156;51.508;5.406;2024-02-26T01:18:37;99700.25;;;5.77;100.00
54042;BME280;41156;51.508;5.406;2024-02-26T01:21:37;99699.63;;;5.75;100.00
54042;BME280;41156;51.508;5.406;2024-02-26T01:24:37;99696.13;;;5.74;100.00
54042;BME280;41156;51.508;5.406;2024-02-26T01:27:38;99706.22;;;5.72;100.00
54042;BME280;41156;51.508;5.406;2024-02-26T01:30:38;99714.69;;;5.69;100.00
54042;BME280;41156;51.508;5.406;2024-02-26T01:33:38;99714.69;;;5.69;100.00
54042;BME280;41156;51.508;5.406;2024-02-26T01:36:39;99709.53;;;5.68;100.00
54042;BME280;41156;51.508;5.406;2024-02-26T01:39:48;99703.78;;;5.64;100.00
54042;BME280;41156;51.508;5.406;2024-02-26T01:42:49;99710.38;;;5.62;100.00
54042;BME280;41156;51.508;5.406;2024-02-26T01:45:49;99719.25;;;5.62;100.00
54042;BME280;41156;51.508;5.406;2024-02-26T01:48:50;99717.81;;;5.60;100.00
54042;BME280;41156;51.508;5.406;2024-02-26T01:51:50;99719.88;;;5.57;100.00
54042;BME280;41156;51.508;5.406;2024-02-26T01:54:50;99719.25;;;5.55;100.00
54042;BME280;41156;51.508;5.406;2024-02-26T01:57:51;99718.84;;;5.52;100.00
54042;BME280;41156;51.508;5.406;2024-02-26T02:00:53;99724.44;;;5.50;100.00
54042;BME280;41156;51.508;5.406;2024-02-26T02:03:54;99724.44;;;5.50;100.00
54042;BME280;41156;51.508;5.406;2024-02-26T02:06:55;99721.34;;;5.47;100.00
54042;BME280;41156;51.508;5.406;2024-02-26T02:09:57;99722.56;;;5.44;100.00
54042;BME280;41156;51.508;5.406;2024-02-26T02:12:57;99725.47;;;5.43;100.00
54042;BME280;41156;51.508;5.406;2024-02-26T02:15:58;99724.84;;;5.41;100.00
54042;BME280;41156;51.508;5.406;2024-02-26T02:18:58;99721.56;;;5.38;100.00
54042;BME280;41156;51.508;5.406;2024-02-26T02:21:59;99719.09;;;5.37;100.00
54042;BME280;41156;51.508;5.406;2024-02-26T02:24:59;99720.56;;;5.33;100.00
54042;BME280;41156;51.508;5.406;2024-02-26T02:28:00;99728.59;;;5.33;100.00
54042;BME280;41156;51.508;5.406;2024-02-26T02:31:01;99726.31;;;5.30;100.00
54042;BME280;41156;51.508;5.406;2024-02-26T02:34:01;99729.19;;;5.28;100.00
54042;BME280;41156;51.508;5.406;2024-02-26T02:37:02;99729.81;;;5.24;100.00
54042;BME280;41156;51.508;5.406;2024-02-26T02:40:02;99736.41;;;5.21;100.00
54042;BME280;41156;51.508;5.406;2024-02-26T02:43:03;99733.09;;;5.19;100.00
54042;BME280;41156;51.508;5.406;2024-02-26T02:46:04;99732.28;;;5.18;100.00
54042;BME280;41156;51.508;5.406;2024-02-26T02:49:09;99731.91;;;5.15;100.00
54042;BME280;41156;51.508;5.406;2024-02-26T02:52:10;99737.66;;;5.12;100.00
54042;BME280;41156;51.508;5.406;2024-02-26T02:55:10;99736.19;;;5.09;100.00
54042;BME280;41156;51.508;5.406;2024-02-26T02:58:11;99729.41;;;5.07;100.00
54042;BME280;41156;51.508;5.406;2024-02-26T03:01:13;99721.59;;;5.05;100.00
54042;BME280;41156;51.508;5.406;2024-02-26T03:04:13;99730.63;;;5.04;100.00
54042;BME280;41156;51.508;5.406;2024-02-26T03:07:13;99735.59;;;5.00;100.00
54042;BME280;41156;51.508;5.406;2024-02-26T03:10:14;99721.59;;;4.98;100.00
54042;BME280;41156;51.508;5.406;2024-02-26T03:13:14;99738.47;;;4.99;100.00
54042;BME280;41156;51.508;5.406;2024-02-26T03:16:17;99735.19;;;4.97;100.00
54042;BME280;41156;51.508;5.406;2024-02-26T03:19:17;99738.88;;;4.96;100.00
54042;BME280;41156;51.508;5.406;2024-02-26T03:22:17;99736.84;;;4.91;100.00
54042;BME280;41156;51.508;5.406;2024-02-26T03:25:18;99729.41;;;4.87;100.00
54042;BME280;41156;51.508;5.406;2024-02-26T03:28:18;99739.25;;;4.79;100.00
54042;BME280;41156;51.508;5.406;2024-02-26T03:31:18;99737.63;;;4.78;100.00
54042;BME280;41156;51.508;5.406;2024-02-26T03:34:19;99734.34;;;4.76;100.00
54042;BME280;41156;51.508;5.406;2024-02-26T03:37:20;99739.47;;;4.78;100.00
54042;BME280;41156;51.508;5.406;2024-02-26T03:40:20;99735.97;;;4.77;100.00
54042;BME280;41156;51.508;5.406;2024-02-26T03:43:21;99735.97;;;4.77;100.00
54042;BME280;41156;51.508;5.406;2024-02-26T03:46:21;99739.72;;;4.83;100.00
54042;BME280;41156;51.508;5.406;2024-02-26T03:49:21;99737.03;;;4.76;100.00
54042;BME280;41156;51.508;5.406;2024-02-26T03:52:22;99739.25;;;4.79;100.00
54042;BME280;41156;51.508;5.406;2024-02-26T03:55:22;99729.81;;;4.77;100.00
54042;BME280;41156;51.508;5.406;2024-02-26T03:58:25;99726.53;;;4.75;100.00
54042;BME280;41156;51.508;5.406;2024-02-26T04:01:25;99728.34;;;4.74;100.00
54042;BME280;41156;51.508;5.406;2024-02-26T04:04:26;99733.09;;;4.72;100.00
54042;BME280;41156;51.508;5.406;2024-02-26T04:07:26;99724.44;;;4.70;100.00
54042;BME280;41156;51.508;5.406;2024-02-26T04:10:26;99731.88;;;4.68;100.00
54042;BME280;41156;51.508;5.406;2024-02-26T04:13:27;99737.84;;;4.70;100.00
54042;BME280;41156;51.508;5.406;2024-02-26T04:16:27;99742.13;;;4.71;100.00
54042;BME280;41156;51.508;5.406;2024-02-26T04:19:27;99742.13;;;4.71;100.00
54042;BME280;41156;51.508;5.406;2024-02-26T04:22:28;99738.66;;;4.71;100.00
54042;BME280;41156;51.508;5.406;2024-02-26T04:25:28;99736.78;;;4.71;100.00
54042;BME280;41156;51.508;5.406;2024-02-26T04:28:28;99743.78;;;4.72;100.00
54042;BME280;41156;51.508;5.406;2024-02-26T04:31:29;99744.00;;;4.71;100.00
54042;BME280;41156;51.508;5.406;2024-02-26T04:34:32;99741.53;;;4.69;100.00
54042;BME280;41156;51.508;5.406;2024-02-26T04:37:33;99756.34;;;4.72;100.00
54042;BME280;41156;51.508;5.406;2024-02-26T04:40:33;99759.25;;;4.70;100.00
54042;BME280;41156;51.508;5.406;2024-02-26T04:43:33;99756.56;;;4.70;100.00
54042;BME280;41156;51.508;5.406;2024-02-26T04:46:34;99762.94;;;4.69;100.00
54042;BME280;41156;51.508;5.406;2024-02-26T04:49:34;99761.09;;;4.70;100.00
54042;BME280;41156;51.508;5.406;2024-02-26T04:52:35;99767.25;;;4.70;100.00
54042;BME280;41156;51.508;5.406;2024-02-26T04:55:36;99769.31;;;4.68;100.00
54042;BME280;41156;51.508;5.406;2024-02-26T04:58:36;99777.16;;;4.70;100.00
54042;BME280;41156;51.508;5.406;2024-02-26T05:01:36;99773.03;;;4.67;100.00
54042;BME280;41156;51.508;5.406;2024-02-26T05:04:37;99764.38;;;4.65;100.00
54042;BME280;41156;51.508;5.406;2024-02-26T05:07:41;99758.19;;;4.64;100.00
54042;BME280;41156;51.508;5.406;2024-02-26T05:10:45;99762.91;;;4.62;100.00
54042;BME280;41156;51.508;5.406;2024-02-26T05:13:47;99760.84;;;4.64;100.00
54042;BME280;41156;51.508;5.406;2024-02-26T05:16:48;99763.53;;;4.64;100.00
54042;BME280;41156;51.508;5.406;2024-02-26T05:19:48;99762.31;;;4.67;100.00
54042;BME280;41156;51.508;5.406;2024-02-26T05:22:49;99778.78;;;4.64;100.00
54042;BME280;41156;51.508;5.406;2024-02-26T05:25:49;99780.63;;;4.63;100.00
54042;BME280;41156;51.508;5.406;2024-02-26T05:28:50;99784.13;;;4.64;100.00
54042;BME280;41156;51.508;5.406;2024-02-26T05:31:50;99775.06;;;4.65;100.00
54042;BME280;41156;51.508;5.406;2024-02-26T05:34:51;99784.94;;;4.64;100.00
54042;BME280;41156;51.508;5.406;2024-02-26T05:37:51;99788.47;;;4.65;100.00
54042;BME280;41156;51.508;5.406;2024-02-26T05:40:51;99789.28;;;4.66;100.00
54042;BME280;41156;51.508;5.406;2024-02-26T05:43:53;99795.63;;;4.64;100.00
54042;BME280;41156;51.508;5.406;2024-02-26T05:46:53;99795.88;;;4.63;100.00
54042;BME280;41156;51.508;5.406;2024-02-26T05:49:53;99795.88;;;4.63;100.00
54042;BME280;41156;51.508;5.406;2024-02-26T05:52:55;99813.56;;;4.64;100.00
54042;BME280;41156;51.508;5.406;2024-02-26T05:55:55;99810.25;;;4.62;100.00
54042;BME280;41156;51.508;5.406;2024-02-26T05:58:55;99818.09;;;4.63;100.00
54042;BME280;41156;51.508;5.406;2024-02-26T06:01:56;99810.06;;;4.63;100.00
54042;BME280;41156;51.508;5.406;2024-02-26T06:04:57;99825.31;;;4.63;100.00
54042;BME280;41156;51.508;5.406;2024-02-26T06:07:57;99829.00;;;4.62;100.00
54042;BME280;41156;51.508;5.406;2024-02-26T06:10:58;99828.19;;;4.61;100.00
54042;BME280;41156;51.508;5.406;2024-02-26T06:13:58;99832.69;;;4.61;100.00
54042;BME280;41156;51.508;5.406;2024-02-26T06:16:58;99833.09;;;4.58;100.00
54042;BME280;41156;51.508;5.406;2024-02-26T06:19:59;99847.09;;;4.60;100.00
54042;BME280;41156;51.508;5.406;2024-02-26T06:22:59;99839.91;;;4.60;100.00
54042;BME280;41156;51.508;5.406;2024-02-26T06:25:59;99845.25;;;4.60;100.00
54042;BME280;41156;51.508;5.406;2024-02-26T06:29:00;99852.47;;;4.60;100.00
54042;BME280;41156;51.508;5.406;2024-02-26T06:32:00;99855.94;;;4.60;100.00
54042;BME280;41156;51.508;5.406;2024-02-26T06:35:00;99865.19;;;4.58;100.00
54042;BME280;41156;51.508;5.406;2024-02-26T06:38:01;99870.78;;;4.56;100.00
54042;BME280;41156;51.508;5.406;2024-02-26T06:41:01;99866.22;;;4.57;100.00
54042;BME280;41156;51.508;5.406;2024-02-26T06:44:03;99867.25;;;4.56;100.00
54042;BME280;41156;51.508;5.406;2024-02-26T06:47:04;99875.66;;;4.53;100.00
54042;BME280;41156;51.508;5.406;2024-02-26T06:50:04;99881.00;;;4.53;100.00
54042;BME280;41156;51.508;5.406;2024-02-26T06:53:05;99869.69;;;4.51;100.00
54042;BME280;41156;51.508;5.406;2024-02-26T06:56:07;99874.22;;;4.50;100.00
54042;BME280;41156;51.508;5.406;2024-02-26T06:59:07;99883.28;;;4.49;100.00
54042;BME280;41156;51.508;5.406;2024-02-26T07:02:08;99897.50;;;4.50;100.00
54042;BME280;41156;51.508;5.406;2024-02-26T07:05:08;99897.69;;;4.48;100.00
54042;BME280;41156;51.508;5.406;2024-02-26T07:08:09;99896.84;;;4.48;100.00
54042;BME280;41156;51.508;5.406;2024-02-26T07:11:10;99905.06;;;4.46;100.00
54042;BME280;41156;51.508;5.406;2024-02-26T07:14:11;99907.13;;;4.44;100.00
54042;BME280;41156;51.508;5.406;2024-02-26T07:17:12;99907.53;;;4.48;100.00
54042;BME280;41156;51.508;5.406;2024-02-26T07:20:12;99913.09;;;4.46;100.00
54042;BME280;41156;51.508;5.406;2024-02-26T07:23:12;99916.59;;;4.47;100.00
54042;BME280;41156;51.508;5.406;2024-02-26T07:26:13;99922.97;;;4.45;100.00
54042;BME280;41156;51.508;5.406;2024-02-26T07:29:13;99932.66;;;4.47;100.00
54042;BME280;41156;51.508;5.406;2024-02-26T07:32:13;99945.19;;;4.46;100.00
54042;BME280;41156;51.508;5.406;2024-02-26T07:35:14;99936.53;;;4.44;100.00
54042;BME280;41156;51.508;5.406;2024-02-26T07:38:14;99942.50;;;4.46;100.00
54042;BME280;41156;51.508;5.406;2024-02-26T07:41:15;99942.50;;;4.46;100.00
54042;BME280;41156;51.508;5.406;2024-02-26T07:44:15;99953.03;;;4.48;100.00
54042;BME280;41156;51.508;5.406;2024-02-26T07:47:16;99964.38;;;4.50;100.00
54042;BME280;41156;51.508;5.406;2024-02-26T07:50:16;99956.13;;;4.51;100.00
54042;BME280;41156;51.508;5.406;2024-02-26T07:53:19;99967.69;;;4.52;100.00
54042;BME280;41156;51.508;5.406;2024-02-26T07:56:19;99960.66;;;4.51;100.00
54042;BME280;41156;51.508;5.406;2024-02-26T07:59:20;99971.38;;;4.51;100.00
54042;BME280;41156;51.508;5.406;2024-02-26T08:02:20;99966.41;;;4.48;100.00
54042;BME280;41156;51.508;5.406;2024-02-26T08:05:22;99977.53;;;4.51;100.00
54042;BME280;41156;51.508;5.406;2024-02-26T08:08:22;99983.34;;;4.55;100.00
54042;BME280;41156;51.508;5.406;2024-02-26T08:11:22;99989.69;;;4.54;100.00
54042;BME280;41156;51.508;5.406;2024-02-26T08:14:22;99993.38;;;4.53;100.00
54042;BME280;41156;51.508;5.406;2024-02-26T08:17:23;100000.41;;;4.54;100.00
54042;BME280;41156;51.508;5.406;2024-02-26T08:20:23;99997.34;;;4.57;100.00
54042;BME280;41156;51.508;5.406;2024-02-26T08:23:23;99990.31;;;4.56;100.00
54042;BME280;41156;51.508;5.406;2024-02-26T08:26:25;100004.31;;;4.58;100.00
54042;BME280;41156;51.508;5.406;2024-02-26T08:29:25;100003.50;;;4.57;100.00
54042;BME280;41156;51.508;5.406;2024-02-26T08:32:25;100015.03;;;4.58;100.00
54042;BME280;41156;51.508;5.406;2024-02-26T08:35:26;100020.38;;;4.58;100.00
54042;BME280;41156;51.508;5.406;2024-02-26T08:38:26;100017.72;;;4.58;100.00
54042;BME280;41156;51.508;5.406;2024-02-26T08:41:26;100023.91;;;4.58;100.00
54042;BME280;41156;51.508;5.406;2024-02-26T08:44:27;100024.53;;;4.60;100.00
54042;BME280;41156;51.508;5.406;2024-02-26T08:47:27;100031.34;;;4.63;100.00
54042;BME280;41156;51.508;5.406;2024-02-26T08:50:30;100036.72;;;4.63;100.00
54042;BME280;41156;51.508;5.406;2024-02-26T08:53:31;100035.66;;;4.64;100.00
54042;BME280;41156;51.508;5.406;2024-02-26T08:56:31;100045.75;;;4.62;100.00
54042;BME280;41156;51.508;5.406;2024-02-26T08:59:31;100047.00;;;4.66;100.00
54042;BME280;41156;51.508;5.406;2024-02-26T09:02:32;100053.81;;;4.69;100.00
54042;BME280;41156;51.508;5.406;2024-02-26T09:05:32;100055.69;;;4.68;100.00
54042;BME280;41156;51.508;5.406;2024-02-26T09:08:33;100054.00;;;4.67;100.00
54042;BME280;41156;51.508;5.406;2024-02-26T09:11:33;100061.22;;;4.67;100.00
54042;BME280;41156;51.508;5.406;2024-02-26T09:14:33;100065.53;;;4.68;100.00
54042;BME280;41156;51.508;5.406;2024-02-26T09:17:34;100071.72;;;4.68;100.00
54042;BME280;41156;51.508;5.406;2024-02-26T09:20:34;100070.88;;;4.68;100.00
54042;BME280;41156;51.508;5.406;2024-02-26T09:23:34;100068.41;;;4.66;100.00
54042;BME280;41156;51.508;5.406;2024-02-26T09:26:35;100086.38;;;4.72;100.00
54042;BME280;41156;51.508;5.406;2024-02-26T09:29:35;100085.56;;;4.72;100.00
54042;BME280;41156;51.508;5.406;2024-02-26T09:32:36;100083.69;;;4.72;100.00
54042;BME280;41156;51.508;5.406;2024-02-26T09:35:36;100091.53;;;4.74;100.00
54042;BME280;41156;51.508;5.406;2024-02-26T09:38:37;100091.72;;;4.72;100.00
54042;BME280;41156;51.508;5.406;2024-02-26T09:41:38;100106.09;;;4.71;100.00
54042;BME280;41156;51.508;5.406;2024-02-26T09:44:40;100107.38;;;4.75;100.00
54042;BME280;41156;51.508;5.406;2024-02-26T09:47:42;100107.19;;;4.77;100.00
54042;BME280;41156;51.508;5.406;2024-02-26T09:50:43;100118.72;;;4.77;100.00
54042;BME280;41156;51.508;5.406;2024-02-26T09:53:44;100115.22;;;4.77;100.00
54042;BME280;41156;51.508;5.406;2024-02-26T09:56:48;100123.06;;;4.78;100.00
54042;BME280;41156;51.508;5.406;2024-02-26T09:59:51;100123.06;;;4.78;100.00
54042;BME280;41156;51.508;5.406;2024-02-26T10:02:55;100131.72;;;4.80;100.00
54042;BME280;41156;51.508;5.406;2024-02-26T10:05:56;100136.25;;;4.80;100.00
54042;BME280;41156;51.508;5.406;2024-02-26T10:08:58;100138.28;;;4.78;100.00
54042;BME280;41156;51.508;5.406;2024-02-26T10:12:00;100139.75;;;4.80;100.00
54042;BME280;41156;51.508;5.406;2024-02-26T10:15:00;100150.91;;;4.84;100.00
54042;BME280;41156;51.508;5.406;2024-02-26T10:18:04;100156.44;;;4.82;100.00
54042;BME280;41156;51.508;5.406;2024-02-26T10:21:04;100165.50;;;4.81;100.00
54042;BME280;41156;51.508;5.406;2024-02-26T10:24:13;100172.50;;;4.82;100.00
54042;BME280;41156;51.508;5.406;2024-02-26T10:27:15;100168.81;;;4.84;100.00
54042;BME280;41156;51.508;5.406;2024-02-26T10:30:19;100169.81;;;4.82;100.00
54042;BME280;41156;51.508;5.406;2024-02-26T10:33:21;100190.47;;;4.89;100.00
54042;BME280;41156;51.508;5.406;2024-02-26T10:36:22;100186.97;;;4.88;100.00
54042;BME280;41156;51.508;5.406;2024-02-26T10:39:22;100188.63;;;4.89;100.00
54042;BME280;41156;51.508;5.406;2024-02-26T10:42:22;100195.44;;;4.92;100.00
54042;BME280;41156;51.508;5.406;2024-02-26T10:45:23;100207.78;;;4.93;100.00
54042;BME280;41156;51.508;5.406;2024-02-26T10:48:23;100217.50;;;4.94;100.00
54042;BME280;41156;51.508;5.406;2024-02-26T10:51:26;100226.53;;;4.93;100.00
54042;BME280;41156;51.508;5.406;2024-02-26T10:54:29;100228.22;;;4.94;100.00
54042;BME280;41156;51.508;5.406;2024-02-26T10:57:40;100222.84;;;4.94;100.00
54042;BME280;41156;51.508;5.406;2024-02-26T11:00:40;100238.91;;;4.94;100.00
54042;BME280;41156;51.508;5.406;2024-02-26T11:03:41;100234.56;;;4.93;100.00
54042;BME280;41156;51.508;5.406;2024-02-26T11:06:44;100234.38;;;4.94;100.00
54042;BME280;41156;51.508;5.406;2024-02-26T11:09:46;100242.59;;;4.93;100.00
54042;BME280;41156;51.508;5.406;2024-02-26T11:12:52;100238.91;;;4.94;100.00
54042;BME280;41156;51.508;5.406;2024-02-26T11:15:54;100238.91;;;4.94;100.00
54042;BME280;41156;51.508;5.406;2024-02-26T11:18:57;100250.25;;;4.96;100.00
54042;BME280;41156;51.508;5.406;2024-02-26T11:21:58;100252.94;;;4.96;100.00
54042;BME280;41156;51.508;5.406;2024-02-26T11:25:01;100260.97;;;4.96;100.00
54042;BME280;41156;51.508;5.406;2024-02-26T11:28:04;100254.78;;;4.95;100.00
54042;BME280;41156;51.508;5.406;2024-02-26T11:31:05;100257.28;;;4.97;100.00
54042;BME280;41156;51.508;5.406;2024-02-26T11:34:09;100262.06;;;5.02;100.00
54042;BME280;41156;51.508;5.406;2024-02-26T11:37:14;100250.50;;;5.01;100.00
54042;BME280;41156;51.508;5.406;2024-02-26T11:40:14;100264.94;;;5.00;100.00
54042;BME280;41156;51.508;5.406;2024-02-26T11:43:14;100259.19;;;5.03;100.00
54042;BME280;41156;51.508;5.406;2024-02-26T11:46:31;100253.84;;;5.03;100.00
54042;BME280;41156;51.508;5.406;2024-02-26T11:49:31;100261.88;;;5.03;100.00
54042;BME280;41156;51.508;5.406;2024-02-26T11:52:32;100263.69;;;5.03;100.00
54042;BME280;41156;51.508;5.406;2024-02-26T11:55:32;100276.91;;;5.04;100.00
54042;BME280;41156;51.508;5.406;2024-02-26T11:58:33;100260.84;;;5.04;100.00
54042;BME280;41156;51.508;5.406;2024-02-26T12:01:46;100265.19;;;5.05;100.00
54042;BME280;41156;51.508;5.406;2024-02-26T12:04:50;100287.63;;;5.04;100.00
54042;BME280;41156;51.508;5.406;2024-02-26T12:07:54;100281.13;;;5.13;100.00
54042;BME280;41156;51.508;5.406;2024-02-26T12:10:55;100280.03;;;5.08;100.00
54042;BME280;41156;51.508;5.406;2024-02-26T12:13:56;100291.13;;;5.05;100.00
54042;BME280;41156;51.508;5.406;2024-02-26T12:16:57;100302.66;;;5.05;100.00
54042;BME280;41156;51.508;5.406;2024-02-26T12:20:11;100292.97;;;5.04;100.00
54042;BME280;41156;51.508;5.406;2024-02-26T12:23:16;100304.53;;;5.05;100.00
54042;BME280;41156;51.508;5.406;2024-02-26T12:26:20;100310.72;;;5.05;100.00
54042;BME280;41156;51.508;5.406;2024-02-26T12:29:20;100306.34;;;5.04;100.00
54042;BME280;41156;51.508;5.406;2024-02-26T12:32:20;100320.19;;;5.08;100.00
54042;BME280;41156;51.508;5.406;2024-02-26T12:35:20;100324.72;;;5.07;100.00
54042;BME280;41156;51.508;5.406;2024-02-26T12:38:21;100322.69;;;5.09;100.00
54042;BME280;41156;51.508;5.406;2024-02-26T12:41:22;100320.00;;;5.09;100.00
54042;BME280;41156;51.508;5.406;2024-02-26T12:44:26;100327.84;;;5.11;100.00
54042;BME280;41156;51.508;5.406;2024-02-26T12:47:26;100335.88;;;5.11;100.00
54042;BME280;41156;51.508;5.406;2024-02-26T12:50:27;100334.06;;;5.11;100.00
54042;BME280;41156;51.508;5.406;2024-02-26T12:53:27;100345.78;;;5.10;100.00
54042;BME280;41156;51.508;5.406;2024-02-26T12:56:28;100346.59;;;5.11;100.00
54042;BME280;41156;51.508;5.406;2024-02-26T12:59:29;100339.41;;;5.11;100.00
54042;BME280;41156;51.508;5.406;2024-02-26T13:02:31;100353.63;;;5.12;100.00
54042;BME280;41156;51.508;5.406;2024-02-26T13:05:33;100357.50;;;5.09;100.00
54042;BME280;41156;51.508;5.406;2024-02-26T13:08:33;100369.06;;;5.10;100.00
54042;BME280;41156;51.508;5.406;2024-02-26T13:11:34;100372.94;;;5.07;100.00
54042;BME280;41156;51.508;5.406;2024-02-26T13:14:35;100365.34;;;5.11;100.00
54042;BME280;41156;51.508;5.406;2024-02-26T13:17:35;100368.88;;;5.11;100.00
54042;BME280;41156;51.508;5.406;2024-02-26T13:20:36;100373.75;;;5.08;100.00
54042;BME280;41156;51.508;5.406;2024-02-26T13:23:37;100388.63;;;5.10;100.00
54042;BME280;41156;51.508;5.406;2024-02-26T13:26:38;100386.13;;;5.09;100.00
54042;BME280;41156;51.508;5.406;2024-02-26T13:29:39;100396.47;;;5.12;100.00
54042;BME280;41156;51.508;5.406;2024-02-26T13:32:40;100408.00;;;5.12;100.00
54042;BME280;41156;51.508;5.406;2024-02-26T13:35:41;100400.34;;;5.09;100.00
54042;BME280;41156;51.508;5.406;2024-02-26T13:38:51;100405.69;;;5.09;100.00
54042;BME280;41156;51.508;5.406;2024-02-26T13:41:52;100410.06;;;5.10;100.00
54042;BME280;41156;51.508;5.406;2024-02-26T13:44:53;100414.41;;;5.11;100.00
54042;BME280;41156;51.508;5.406;2024-02-26T13:47:53;100418.91;;;5.11;100.00
54042;BME280;41156;51.508;5.406;2024-02-26T13:50:53;100417.44;;;5.08;100.00
54042;BME280;41156;51.508;5.406;2024-02-26T13:53:54;100422.81;;;5.08;100.00
54042;BME280;41156;51.508;5.406;2024-02-26T13:56:54;100429.00;;;5.09;100.00
54042;BME280;41156;51.508;5.406;2024-02-26T13:59:55;100445.06;;;5.09;100.00
54042;BME280;41156;51.508;5.406;2024-02-26T14:02:55;100443.19;;;5.09;100.00
54042;BME280;41156;51.508;5.406;2024-02-26T14:05:55;100448.38;;;5.11;100.00
54042;BME280;41156;51.508;5.406;2024-02-26T14:08:57;100454.56;;;5.11;100.00
54042;BME280;41156;51.508;5.406;2024-02-26T14:11:58;100461.56;;;5.12;100.00
54042;BME280;41156;51.508;5.406;2024-02-26T14:14:59;100468.16;;;5.10;100.00
54042;BME280;41156;51.508;5.406;2024-02-26T14:18:00;100458.44;;;5.09;100.00
54042;BME280;41156;51.508;5.406;2024-02-26T14:21:02;100464.63;;;5.09;100.00
54042;BME280;41156;51.508;5.406;2024-02-26T14:24:03;100465.28;;;5.11;100.00
54042;BME280;41156;51.508;5.406;2024-02-26T14:27:04;100473.31;;;5.11;100.00
54042;BME280;41156;51.508;5.406;2024-02-26T14:30:05;100479.31;;;5.13;100.00
54042;BME280;41156;51.508;5.406;2024-02-26T14:33:06;100485.50;;;5.14;100.00
54042;BME280;41156;51.508;5.406;2024-02-26T14:36:07;100489.19;;;5.13;100.00
54042;BME280;41156;51.508;5.406;2024-02-26T14:39:07;100486.31;;;5.14;100.00
54042;BME280;41156;51.508;5.406;2024-02-26T14:42:11;100495.00;;;5.16;100.00
54042;BME280;41156;51.508;5.406;2024-02-26T14:45:11;100502.00;;;5.17;100.00
54042;BME280;41156;51.508;5.406;2024-02-26T14:48:11;100504.69;;;5.17;100.00
54042;BME280;41156;51.508;5.406;2024-02-26T14:51:12;100507.19;;;5.19;100.00
54042;BME280;41156;51.508;5.406;2024-02-26T14:54:13;100513.59;;;5.18;100.00
54042;BME280;41156;51.508;5.406;2024-02-26T14:57:13;100512.53;;;5.19;100.00
54042;BME280;41156;51.508;5.406;2024-02-26T15:00:14;100529.34;;;5.28;100.00
54042;BME280;41156;51.508;5.406;2024-02-26T15:03:14;100519.09;;;5.31;100.00
54042;BME280;41156;51.508;5.406;2024-02-26T15:06:15;100536.63;;;5.34;100.00
54042;BME280;41156;51.508;5.406;2024-02-26T15:09:15;100536.63;;;5.34;100.00
54042;BME280;41156;51.508;5.406;2024-02-26T15:12:15;100549.28;;;5.40;100.00
54042;BME280;41156;51.508;5.406;2024-02-26T15:15:17;100553.41;;;5.43;100.00
54042;BME280;41156;51.508;5.406;2024-02-26T15:18:18;100566.44;;;5.46;100.00
54042;BME280;41156;51.508;5.406;2024-02-26T15:21:18;100565.81;;;5.44;100.00
54042;BME280;41156;51.508;5.406;2024-02-26T15:24:18;100563.97;;;5.44;100.00
54042;BME280;41156;51.508;5.406;2024-02-26T15:27:19;100573.66;;;5.45;100.00
54042;BME280;41156;51.508;5.406;2024-02-26T15:30:19;100574.50;;;5.46;100.00
54042;BME280;41156;51.508;5.406;2024-02-26T15:33:19;100572.00;;;5.44;100.00
54042;BME280;41156;51.508;5.406;2024-02-26T15:36:19;100573.66;;;5.45;100.00
54042;BME280;41156;51.508;5.406;2024-02-26T15:39:20;100591.41;;;5.46;100.00
54042;BME280;41156;51.508;5.406;2024-02-26T15:42:21;100584.84;;;5.49;100.00
54042;BME280;41156;51.508;5.406;2024-02-26T15:45:21;100598.88;;;5.51;100.00
54042;BME280;41156;51.508;5.406;2024-02-26T15:48:24;100597.88;;;5.52;100.00
54042;BME280;41156;51.508;5.406;2024-02-26T15:51:25;100591.69;;;5.51;100.00